createdAt,value
2022-08-01T00:02:56.527Z,25.70
2022-08-01T00:07:59.313Z,25.71
2022-08-01T00:13:02.016Z,25.70
2022-08-01T00:18:06.450Z,25.71
2022-08-01T00:23:09.218Z,25.71
2022-08-01T00:28:12.583Z,25.67
2022-08-01T00:33:16.741Z,25.69
2022-08-01T00:38:19.514Z,25.67
2022-08-01T00:43:22.249Z,25.67
2022-08-01T00:48:26.438Z,25.63
2022-08-01T00:53:50.658Z,25.60
2022-08-01T00:58:52.192Z,25.61
2022-08-01T01:03:59.079Z,25.58
2022-08-01T01:09:17.218Z,25.56
2022-08-01T01:14:25.693Z,25.54
2022-08-01T01:19:32.304Z,25.53
2022-08-01T01:24:40.435Z,25.54
2022-08-01T01:30:00.437Z,25.52
2022-08-01T01:35:04.537Z,25.48
2022-08-01T01:40:08.985Z,25.48
2022-08-01T01:45:13.067Z,25.47
2022-08-01T01:50:15.968Z,25.50
2022-08-01T01:55:18.769Z,25.47
2022-08-01T02:00:23.103Z,25.48
2022-08-01T02:05:25.893Z,25.46
2022-08-01T02:10:29.306Z,25.40
2022-08-01T02:15:34.014Z,25.32
2022-08-01T02:20:36.864Z,25.26
2022-08-01T02:26:10.626Z,25.29
2022-08-01T02:31:07.116Z,25.29
2022-08-01T02:36:32.468Z,25.26
2022-08-01T02:41:32.858Z,25.23
2022-08-01T02:46:39.534Z,25.22
2022-08-01T02:51:42.282Z,25.19
2022-08-01T02:56:45.052Z,25.16
2022-08-01T03:01:49.547Z,25.12
2022-08-01T03:06:53.043Z,25.14
2022-08-01T03:11:56.030Z,25.10
2022-08-01T03:17:00.224Z,25.06
2022-08-01T03:22:04.519Z,24.42
2022-08-01T03:27:07.969Z,22.99
2022-08-01T03:32:12.412Z,22.59
2022-08-01T03:37:17.679Z,22.39
2022-08-01T03:42:22.689Z,22.28
2022-08-01T03:47:28.396Z,22.06
2022-08-01T03:52:31.468Z,21.94
2022-08-01T03:57:36.132Z,21.80
2022-08-01T04:02:40.926Z,21.62
2022-08-01T04:07:47.598Z,21.53
2022-08-01T04:12:50.358Z,21.49
2022-08-01T04:17:55.070Z,21.43
2022-08-01T04:22:57.780Z,21.26
2022-08-01T04:28:00.472Z,21.16
2022-08-01T04:33:06.073Z,21.15
2022-08-01T04:38:08.961Z,21.04
2022-08-01T04:43:12.948Z,20.97
2022-08-01T04:48:20.263Z,20.83
2022-08-01T04:53:26.987Z,20.70
2022-08-01T04:58:29.785Z,20.80
2022-08-01T05:03:38.669Z,20.84
2022-08-01T05:08:42.368Z,21.04
2022-08-01T05:13:45.061Z,21.02
2022-08-01T05:18:53.102Z,21.07
2022-08-01T05:23:55.936Z,20.85
2022-08-01T05:28:58.875Z,20.88
2022-08-01T05:34:03.019Z,20.85
2022-08-01T05:39:05.813Z,20.92
2022-08-01T05:44:08.681Z,20.79
2022-08-01T05:49:12.908Z,20.79
2022-08-01T05:54:15.846Z,20.72
2022-08-01T05:59:18.630Z,20.75
2022-08-01T06:04:22.765Z,20.85
2022-08-01T06:09:25.487Z,20.95
2022-08-01T06:14:28.231Z,20.98
2022-08-01T06:19:32.367Z,21.06
2022-08-01T06:24:35.185Z,21.06
2022-08-01T06:29:37.978Z,21.11
2022-08-01T06:34:42.103Z,21.15
2022-08-01T06:39:46.000Z,21.19
2022-08-01T06:44:48.790Z,21.30
2022-08-01T06:49:53.030Z,21.28
2022-08-01T06:54:55.699Z,21.33
2022-08-01T06:59:58.443Z,21.34
2022-08-01T07:05:03.839Z,21.28
2022-08-01T07:10:07.666Z,21.36
2022-08-01T07:15:11.340Z,21.48
2022-08-01T07:20:16.430Z,21.55
2022-08-01T07:25:19.515Z,21.55
2022-08-01T07:30:22.309Z,21.60
2022-08-01T07:35:26.431Z,21.62
2022-08-01T07:40:29.363Z,21.64
2022-08-01T07:45:32.211Z,21.63
2022-08-01T07:50:36.433Z,21.60
2022-08-01T07:55:39.208Z,21.80
2022-08-01T08:00:41.936Z,21.92
2022-08-01T08:05:58.461Z,21.79
2022-08-01T08:11:02.745Z,21.93
2022-08-01T08:16:05.874Z,21.61
2022-08-01T08:21:09.936Z,21.07
2022-08-01T08:26:12.755Z,20.79
2022-08-01T08:31:50.915Z,20.80
2022-08-01T08:36:39.619Z,20.92
2022-08-01T08:41:50.809Z,20.97
2022-08-01T08:46:53.953Z,21.08
2022-08-01T08:52:01.799Z,21.34
2022-08-01T08:57:04.889Z,21.60
2022-08-01T09:02:08.878Z,21.83
2022-08-01T09:07:14.982Z,21.89
2022-08-01T09:12:18.693Z,22.08
2022-08-01T09:17:21.852Z,22.17
2022-08-01T09:22:26.280Z,22.20
2022-08-01T09:27:29.059Z,22.40
2022-08-01T09:32:35.716Z,22.68
2022-08-01T09:37:40.370Z,22.80
2022-08-01T09:42:52.741Z,22.93
2022-08-01T09:47:55.484Z,22.93
2022-08-01T09:52:59.631Z,23.08
2022-08-01T09:58:02.732Z,23.17
2022-08-01T10:03:21.092Z,23.37
2022-08-01T10:08:26.674Z,23.41
2022-08-01T10:13:36.641Z,23.41
2022-08-01T10:18:39.743Z,23.37
2022-08-01T10:23:43.876Z,23.34
2022-08-01T10:28:46.705Z,23.50
2022-08-01T10:33:51.312Z,23.56
2022-08-01T10:38:57.675Z,23.67
2022-08-01T10:44:02.421Z,23.71
2022-08-01T10:49:06.659Z,23.79
2022-08-01T10:54:12.575Z,23.89
2022-08-01T10:59:16.858Z,23.88
2022-08-01T11:04:35.579Z,23.95
2022-08-01T11:09:46.958Z,23.92
2022-08-01T11:15:29.902Z,24.00
2022-08-01T11:20:42.127Z,24.02
2022-08-01T11:26:10.909Z,24.11
2022-08-01T11:31:27.771Z,24.16
2022-08-01T11:36:55.857Z,24.06
2022-08-01T11:41:55.788Z,24.12
2022-08-01T11:47:01.198Z,24.23
2022-08-01T11:52:06.590Z,24.24
2022-08-01T11:57:11.623Z,24.34
2022-08-01T12:02:30.690Z,24.42
2022-08-01T12:07:34.301Z,24.50
2022-08-01T12:12:39.252Z,24.50
2022-08-01T12:17:45.844Z,24.67
2022-08-01T12:23:02.972Z,24.62
2022-08-01T12:28:07.894Z,24.73
2022-08-01T12:33:11.531Z,24.73
2022-08-01T12:38:16.248Z,24.82
2022-08-01T12:43:28.615Z,24.79
2022-08-01T12:48:32.137Z,24.75
2022-08-01T12:53:40.256Z,24.74
2022-08-01T12:58:45.718Z,24.73
2022-08-01T13:03:59.333Z,24.74
2022-08-01T13:09:07.063Z,24.81
2022-08-01T13:14:11.562Z,24.84
2022-08-01T13:19:14.829Z,24.90
2022-08-01T13:24:17.886Z,24.92
2022-08-01T13:29:23.928Z,24.99
2022-08-01T13:34:32.032Z,24.97
2022-08-01T13:39:45.318Z,24.99
2022-08-01T13:44:49.609Z,25.09
2022-08-01T13:49:52.448Z,25.12
2022-08-01T13:54:55.654Z,25.10
2022-08-01T14:00:00.840Z,25.09
2022-08-01T14:05:03.662Z,25.15
2022-08-01T14:10:19.557Z,25.16
2022-08-01T14:15:38.712Z,25.22
2022-08-01T14:20:42.532Z,25.22
2022-08-01T14:26:00.477Z,25.25
2022-08-01T14:31:08.598Z,25.51
2022-08-01T14:36:31.053Z,25.57
2022-08-01T14:41:34.297Z,25.45
2022-08-01T14:46:38.521Z,25.42
2022-08-01T14:52:00.257Z,25.41
2022-08-01T14:57:04.194Z,25.47
2022-08-01T15:02:10.647Z,25.59
2022-08-01T15:07:13.585Z,25.84
2022-08-01T15:12:16.565Z,25.83
2022-08-01T15:17:21.472Z,25.81
2022-08-01T15:22:25.902Z,25.88
2022-08-01T15:27:29.048Z,25.97
2022-08-01T15:32:33.205Z,26.10
2022-08-01T15:37:40.837Z,25.97
2022-08-01T15:42:46.155Z,25.96
2022-08-01T15:47:50.423Z,25.89
2022-08-01T15:52:53.162Z,26.01
2022-08-01T15:57:56.424Z,25.92
2022-08-01T16:03:00.512Z,25.90
2022-08-01T16:08:03.363Z,26.00
2022-08-01T16:13:07.085Z,26.00
2022-08-01T16:18:13.588Z,26.02
2022-08-01T16:23:16.312Z,25.93
2022-08-01T16:28:19.291Z,26.01
2022-08-01T16:33:46.965Z,26.07
2022-08-01T16:38:46.357Z,26.11
2022-08-01T16:43:53.318Z,26.07
2022-08-01T16:48:58.959Z,26.07
2022-08-01T16:54:02.216Z,26.11
2022-08-01T16:59:04.943Z,26.08
2022-08-01T17:04:09.004Z,26.10
2022-08-01T17:09:11.766Z,26.13
2022-08-01T17:14:14.505Z,26.41
2022-08-01T17:19:18.927Z,26.60
2022-08-01T17:24:21.671Z,26.65
2022-08-01T17:29:24.567Z,26.68
2022-08-01T17:34:28.727Z,26.78
2022-08-01T17:39:38.631Z,26.60
2022-08-01T17:44:48.970Z,26.49
2022-08-01T17:49:55.140Z,26.49
2022-08-01T17:54:58.843Z,26.50
2022-08-01T18:00:01.673Z,26.46
2022-08-01T18:05:09.612Z,26.40
2022-08-01T18:10:13.674Z,26.37
2022-08-01T18:15:24.541Z,26.38
2022-08-01T18:20:31.361Z,26.48
2022-08-01T18:25:34.398Z,26.47
2022-08-01T18:30:37.137Z,26.41
2022-08-01T18:35:51.798Z,26.38
2022-08-01T18:40:55.873Z,26.50
2022-08-01T18:45:58.903Z,26.42
2022-08-01T18:51:03.022Z,26.42
2022-08-01T18:56:11.682Z,26.41
2022-08-01T19:01:15.039Z,26.34
2022-08-01T19:06:19.313Z,26.37
2022-08-01T19:11:22.144Z,26.28
2022-08-01T19:16:25.019Z,26.29
2022-08-01T19:21:29.135Z,26.25
2022-08-01T19:26:31.856Z,26.17
2022-08-01T19:31:34.603Z,26.15
2022-08-01T19:36:38.717Z,26.09
2022-08-01T19:41:41.630Z,26.08
2022-08-01T19:46:44.635Z,26.03
2022-08-01T19:51:50.165Z,25.97
2022-08-01T19:56:52.923Z,25.94
2022-08-01T20:01:56.738Z,25.91
2022-08-01T20:07:00.823Z,26.03
2022-08-01T20:12:03.625Z,25.97
2022-08-01T20:17:07.468Z,26.09
2022-08-01T20:22:11.516Z,26.11
2022-08-01T20:27:15.601Z,26.04
2022-08-01T20:32:18.649Z,25.99
2022-08-01T20:38:05.391Z,26.07
2022-08-01T20:42:45.736Z,26.08
2022-08-01T20:47:48.665Z,26.05
2022-08-01T20:52:52.720Z,26.02
2022-08-01T20:57:55.480Z,25.96
2022-08-01T21:03:02.665Z,26.00
2022-08-01T21:08:09.270Z,25.97
2022-08-01T21:13:20.599Z,26.04
2022-08-01T21:18:26.107Z,26.03
2022-08-01T21:23:32.513Z,26.01
2022-08-01T21:28:35.278Z,25.99
2022-08-01T21:33:38.114Z,25.99
2022-08-01T21:39:02.506Z,26.00
2022-08-01T21:44:05.637Z,25.97
2022-08-01T21:49:08.846Z,26.03
2022-08-01T21:54:17.635Z,25.92
2022-08-01T21:59:23.741Z,25.97
2022-08-01T22:04:29.191Z,26.06
2022-08-01T22:09:33.481Z,26.14
2022-08-01T22:14:36.790Z,26.08
2022-08-01T22:19:45.565Z,26.08
2022-08-01T22:24:50.821Z,26.06
2022-08-01T22:29:57.401Z,26.01
2022-08-01T22:35:00.579Z,25.95
2022-08-01T22:40:06.778Z,25.88
2022-08-01T22:45:12.544Z,25.90
2022-08-01T22:50:18.219Z,25.79
2022-08-01T22:55:58.684Z,25.82
2022-08-01T23:01:02.596Z,25.75
2022-08-01T23:06:07.975Z,25.70
2022-08-01T23:11:12.087Z,25.70
2022-08-01T23:16:17.547Z,25.63
2022-08-01T23:21:20.479Z,25.60
2022-08-01T23:26:24.604Z,25.32
2022-08-01T23:32:02.794Z,25.16
2022-08-01T23:36:50.559Z,25.27
2022-08-01T23:42:07.798Z,25.14
2022-08-01T23:47:10.799Z,24.91
2022-08-01T23:52:20.810Z,24.79
2022-08-01T23:57:25.880Z,24.99
